Time;durP1;ratioP1;P1;durP2;ratioP2;P2;SDS_P1;SDS_P2;PMS_P1;PMS_P2;Temp;Humidity;BMP_temperature;BMP_pressure;BME280_temperature;BME280_humidity;BME280_pressure;Samples;Min_cycle;Max_cycle;Signal;HPM_P1;HPM_P2
2021/01/27 00:00:23;;;;;;;27.83;15.55;;;;;;;0.19;100.00;101374.91;6173644;28;20058;-75
2021/01/27 00:03:24;;;;;;;32.33;17.00;;;;;;;0.15;100.00;101379.22;6186048;28;20042;-76
2021/01/27 00:06:25;;;;;;;27.58;15.38;;;;;;;0.09;100.00;101368.00;6221817;28;20054;-76
2021/01/27 00:09:26;;;;;;;33.17;15.27;;;;;;;0.07;100.00;101362.84;6221649;28;20423;-76
2021/01/27 00:12:28;;;;;;;27.60;15.15;;;;;;;0.10;100.00;101365.44;6209456;28;20074;-76
2021/01/27 00:15:31;;;;;;;26.92;14.70;;;;;;;0.07;100.00;101349.91;6198005;28;20088;-76
2021/01/27 00:18:31;;;;;;;32.85;16.13;;;;;;;0.03;100.00;101343.03;6197236;28;20173;-75
2021/01/27 00:21:32;;;;;;;33.88;16.73;;;;;;;-0.04;100.00;101334.44;6196458;28;20090;-76
2021/01/27 00:24:33;;;;;;;30.60;15.18;;;;;;;-0.07;100.00;101329.25;6173547;28;20046;-75
2021/01/27 00:27:35;;;;;;;28.10;14.85;;;;;;;-0.05;100.00;101331.81;6173104;28;20058;-76
2021/01/27 00:30:39;;;;;;;27.25;15.52;;;;;;;-0.09;100.00;101333.56;6173328;28;20058;-75
2021/01/27 00:33:39;;;;;;;31.40;15.40;;;;;;;-0.09;100.00;101322.34;6209831;28;20097;-76
2021/01/27 00:36:40;;;;;;;26.75;15.90;;;;;;;-0.16;100.00;101324.09;6221606;28;20045;-75
2021/01/27 00:39:41;;;;;;;35.35;16.25;;;;;;;-0.19;100.00;101328.38;6221429;28;20050;-76
2021/01/27 00:42:43;;;;;;;29.58;16.48;;;;;;;-0.20;100.00;101331.84;6221826;28;20054;-75
2021/01/27 00:45:44;;;;;;;33.60;17.65;;;;;;;-0.26;100.00;101336.16;6221780;28;20058;-75
2021/01/27 00:48:48;;;;;;;33.05;16.88;;;;;;;-0.27;100.00;101333.56;6194046;28;20047;-76
2021/01/27 00:51:49;;;;;;;39.72;18.00;;;;;;;-0.28;100.00;101327.53;6173336;28;20439;-76
2021/01/27 00:54:50;;;;;;;38.33;18.02;;;;;;;-0.21;100.00;101330.97;6173079;28;20046;-75
2021/01/27 00:57:51;;;;;;;35.63;18.48;;;;;;;-0.28;100.00;101339.56;6173010;28;20447;-76
2021/01/27 01:00:52;;;;;;;39.20;17.77;;;;;;;-0.32;100.00;101335.25;6174024;28;20058;-75
2021/01/27 01:03:53;;;;;;;38.70;18.35;;;;;;;-0.31;100.00;101334.44;6201265;28;20443;-80
2021/01/27 01:06:55;;;;;;;38.70;18.73;;;;;;;-0.28;100.00;101329.25;6202941;28;20054;-79
2021/01/27 01:09:56;;;;;;;39.58;18.73;;;;;;;-0.24;100.00;101319.78;6202813;28;20051;-79
2021/01/27 01:12:59;;;;;;;31.55;17.52;;;;;;;-0.25;100.00;101331.84;6202557;28;20053;-79
2021/01/27 01:16:00;;;;;;;36.45;19.15;;;;;;;-0.25;100.00;101329.25;6202568;28;20068;-80
2021/01/27 01:19:00;;;;;;;37.88;19.00;;;;;;;-0.29;100.00;101323.22;6202375;28;20046;-79
2021/01/27 01:22:01;;;;;;;42.97;19.23;;;;;;;-0.30;100.00;101321.50;6203092;28;20077;-80
2021/01/27 01:25:03;;;;;;;41.60;20.63;;;;;;;-0.31;100.00;101317.22;6202736;28;20046;-80
2021/01/27 01:28:06;;;;;;;42.30;20.20;;;;;;;-0.31;100.00;101306.03;6202331;28;20529;-80
2021/01/27 01:31:07;;;;;;;36.33;20.73;;;;;;;-0.32;100.00;101309.44;6206884;28;20045;-80
2021/01/27 01:34:08;;;;;;;37.75;19.45;;;;;;;-0.33;100.00;101298.25;6226667;28;20057;-80
2021/01/27 01:37:08;;;;;;;41.58;21.05;;;;;;;-0.36;100.00;101294.84;6226331;28;20041;-79
2021/01/27 01:40:12;;;;;;;39.38;20.48;;;;;;;-0.35;100.00;101300.00;6226440;28;20077;-79
2021/01/27 01:43:16;;;;;;;40.03;21.50;;;;;;;-0.34;100.00;101304.28;6226513;28;20046;-81
2021/01/27 01:46:20;;;;;;;45.35;22.88;;;;;;;-0.35;100.00;101305.16;6204318;28;20420;-80
2021/01/27 01:49:21;;;;;;;50.70;23.92;;;;;;;-0.23;100.00;101293.09;6177932;28;20051;-80
2021/01/27 01:52:22;;;;;;;45.17;22.55;;;;;;;-0.25;100.00;101290.50;6177936;28;20054;-81
2021/01/27 01:55:23;;;;;;;43.78;21.65;;;;;;;-0.21;100.00;101292.25;6178271;28;20129;-80
2021/01/27 01:58:25;;;;;;;49.63;24.70;;;;;;;-0.18;100.00;101294.84;6177771;28;20046;-80
2021/01/27 02:01:26;;;;;;;56.78;26.63;;;;;;;-0.11;100.00;101293.94;6195024;28;20482;-80
2021/01/27 02:04:32;;;;;;;52.05;26.48;;;;;;;-0.03;100.00;101289.63;6225687;28;20049;-80
2021/01/27 02:07:33;;;;;;;57.50;28.33;;;;;;;0.03;100.00;101296.53;6226040;28;20045;-80
2021/01/27 02:10:34;;;;;;;54.63;27.55;;;;;;;0.15;100.00;101296.50;6225664;28;20060;-79
2021/01/27 02:13:59;;;;;;;64.20;29.25;;;;;;;0.16;100.00;101289.63;6225287;28;20065;-79
2021/01/27 02:17:06;;;;;;;64.18;29.42;;;;;;;0.20;100.00;101296.50;6177281;28;20627;-81
2021/01/27 02:20:42;;;;;;;66.10;29.65;;;;;;;0.28;100.00;101286.16;6177412;28;20055;-81
2021/01/27 02:24:19;;;;;;;60.17;31.40;;;;;;;0.40;100.00;101281.78;6111702;28;20062;-79
2021/01/27 02:27:25;;;;;;;62.58;30.55;;;;;;;0.64;100.00;101274.84;6176869;28;20431;-81
2021/01/27 02:30:53;;;;;;;67.20;31.27;;;;;;;0.52;100.00;101273.16;6181641;28;20080;-79
2021/01/27 02:34:12;;;;;;;61.55;31.40;;;;;;;0.55;100.00;101273.13;6201026;28;20050;-79
2021/01/27 02:37:17;;;;;;;60.47;30.00;;;;;;;0.70;100.00;101265.31;6200577;28;20046;-80
2021/01/27 02:40:23;;;;;;;75.78;35.58;;;;;;;0.69;100.00;101270.50;6200975;28;20294;-80
2021/01/27 02:43:28;;;;;;;70.07;32.60;;;;;;;0.68;100.00;101255.81;6195441;28;20416;-79
2021/01/27 02:46:35;;;;;;;68.53;33.50;;;;;;;0.66;100.00;101252.41;6176730;28;20106;-81
2021/01/27 02:49:43;;;;;;;67.72;33.53;;;;;;;0.67;100.00;101246.34;6176383;28;20057;-79
2021/01/27 02:52:50;;;;;;;63.25;33.72;;;;;;;0.65;100.00;101242.94;6176812;28;20492;-81
2021/01/27 02:55:56;;;;;;;66.72;33.67;;;;;;;0.66;100.00;101248.09;6176488;28;20055;-81
2021/01/27 02:59:00;;;;;;;62.63;33.88;;;;;;;0.73;100.00;101244.63;6176368;28;20057;-79
2021/01/27 03:02:07;;;;;;;66.00;35.13;;;;;;;0.68;100.00;101243.78;6195582;28;20061;-80
2021/01/27 03:05:14;;;;;;;68.50;34.65;;;;;;;0.71;100.00;101245.47;6200855;28;20054;-81
2021/01/27 03:08:20;;;;;;;61.42;33.35;;;;;;;0.80;100.00;101239.41;6200416;28;20046;-79
2021/01/27 03:11:24;;;;;;;65.40;33.95;;;;;;;0.76;100.00;101235.97;6199905;28;20046;-80
2021/01/27 03:14:24;;;;;;;64.45;33.53;;;;;;;0.80;100.00;101227.31;6200393;28;20169;-82
2021/01/27 03:17:29;;;;;;;55.00;31.20;;;;;;;0.69;100.00;101219.63;6199760;28;20066;-82
2021/01/27 03:20:33;;;;;;;64.05;32.97;;;;;;;0.64;100.00;101211.03;6199870;28;20105;-82
2021/01/27 03:23:39;;;;;;;74.70;33.03;;;;;;;0.76;100.00;101213.53;6200092;28;20050;-81
2021/01/27 03:26:50;;;;;;;60.88;31.38;;;;;;;0.66;100.00;101204.13;6199473;28;20161;-81
2021/01/27 03:29:53;;;;;;;69.55;32.72;;;;;;;0.74;100.00;101202.34;6201058;28;20057;-81
2021/01/27 03:33:00;;;;;;;60.42;31.30;;;;;;;0.85;100.00;101204.00;6199194;28;20349;-81
2021/01/27 03:36:04;;;;;;;64.30;31.05;;;;;;;0.67;100.00;101203.25;6199849;28;20499;-81
2021/01/27 03:39:07;;;;;;;57.95;30.52;;;;;;;0.63;100.00;101204.13;6199327;28;20057;-81
2021/01/27 03:42:14;;;;;;;60.95;32.58;;;;;;;0.65;100.00;101199.81;6199662;28;20061;-82
2021/01/27 03:45:19;;;;;;;55.63;28.92;;;;;;;0.65;100.00;101202.41;6199786;28;20057;-80
2021/01/27 03:48:29;;;;;;;55.80;30.10;;;;;;;0.79;100.00;101198.88;6200031;28;20054;-79
2021/01/27 03:51:33;;;;;;;;;;;;;;;0.76;100.00;101197.16;6199750;28;20062;-80
2021/01/27 03:54:40;;;;;;;54.17;27.08;;;;;;;0.71;100.00;101207.53;6199537;28;19932;-79
2021/01/27 03:57:47;;;;;;;57.05;29.27;;;;;;;0.65;100.00;101198.97;6200148;28;20050;-80
2021/01/27 04:00:50;;;;;;;51.92;29.70;;;;;;;0.67;100.00;101194.63;6199085;28;20046;-79
2021/01/27 04:03:53;;;;;;;57.38;30.17;;;;;;;0.65;100.00;101198.97;6199129;28;20054;-80
2021/01/27 04:06:54;;;;;;;51.20;25.10;;;;;;;0.68;100.00;101191.16;6199086;28;20058;-80
2021/01/27 04:09:56;;;;;;;49.88;27.10;;;;;;;0.64;100.00;101189.50;6202868;28;20414;-80
2021/01/27 04:12:57;;;;;;;53.75;29.83;;;;;;;0.56;100.00;101181.75;6223722;28;20073;-80
2021/01/27 04:15:58;;;;;;;57.67;28.98;;;;;;;0.60;100.00;101180.88;6177383;28;20082;-80
2021/01/27 04:19:00;;;;;;;53.85;27.65;;;;;;;0.51;100.00;101183.50;6174637;28;20559;-81
2021/01/27 04:22:02;;;;;;;50.90;26.98;;;;;;;0.51;100.00;101183.50;6175306;28;20130;-81
2021/01/27 04:25:05;;;;;;;60.20;26.83;;;;;;;0.60;99.47;101182.63;6175013;28;20054;-80
2021/01/27 04:28:06;;;;;;;53.83;26.52;;;;;;;0.54;99.88;101173.13;6174845;28;20125;-80
2021/01/27 04:31:07;;;;;;;52.70;27.00;;;;;;;0.55;99.71;101179.19;6188224;28;20050;-80
2021/01/27 04:34:08;;;;;;;47.60;25.75;;;;;;;0.50;99.37;101171.47;6198043;28;20078;-80
2021/01/27 04:37:09;;;;;;;58.78;25.90;;;;;;;0.56;99.85;101171.41;6200620;28;20136;-80
2021/01/27 04:40:14;;;;;;;48.78;25.17;;;;;;;0.52;99.90;101164.53;6203774;28;20049;-80
2021/01/27 04:43:20;;;;;;;47.95;26.35;;;;;;;0.56;100.00;101165.41;6203950;28;20054;-81
2021/01/27 04:46:24;;;;;;;48.33;25.48;;;;;;;0.56;100.00;101162.81;6203563;28;20499;-80
2021/01/27 04:49:28;;;;;;;46.72;25.17;;;;;;;0.55;100.00;101161.09;6203503;28;20050;-79
2021/01/27 04:52:49;;;;;;;47.00;25.60;;;;;;;0.53;100.00;101158.50;6203125;28;20086;-82
2021/01/27 04:56:06;;;;;;;49.78;24.30;;;;;;;0.61;99.86;101169.66;6205008;28;20042;-79
2021/01/27 04:59:12;;;;;;;48.70;23.83;;;;;;;0.71;98.93;101168.72;6202389;28;20053;-80
2021/01/27 05:02:23;;;;;;;42.55;22.75;;;;;;;0.61;98.40;101169.66;6203304;28;20100;-80
2021/01/27 05:05:26;;;;;;;44.72;22.95;;;;;;;0.52;98.61;101164.53;6201182;28;20054;-80
2021/01/27 05:08:31;;;;;;;45.50;24.02;;;;;;;0.50;99.52;101166.28;6178909;28;20057;-80
2021/01/27 05:11:33;;;;;;;47.95;22.90;;;;;;;0.47;99.48;101164.56;6179065;28;20047;-80
2021/01/27 05:14:35;;;;;;;45.25;24.77;;;;;;;0.50;99.46;101171.47;6179320;28;20062;-80
2021/01/27 05:17:40;;;;;;;47.35;24.10;;;;;;;0.55;98.76;101169.72;6178620;28;20058;-80
2021/01/27 05:20:41;;;;;;;45.40;23.02;;;;;;;0.52;99.21;101161.97;6178925;28;20058;-80
2021/01/27 05:23:42;;;;;;;48.58;23.35;;;;;;;0.52;99.26;101158.50;6178537;28;20051;-80
2021/01/27 05:26:53;;;;;;;40.63;21.60;;;;;;;0.63;98.51;101156.72;6194116;28;20112;-80
2021/01/27 05:29:58;;;;;;;39.45;21.92;;;;;;;0.67;98.07;101146.34;6202192;28;20503;-79
2021/01/27 05:33:00;;;;;;;39.95;20.65;;;;;;;0.57;96.91;101143.84;6192821;28;20043;-79
2021/01/27 05:36:07;;;;;;;36.00;20.65;;;;;;;0.58;97.30;101148.13;6202223;28;20046;-80
2021/01/27 05:39:10;;;;;;;40.47;19.80;;;;;;;0.64;97.17;101137.75;6202471;28;20042;-80
2021/01/27 05:42:21;;;;;;;38.45;19.50;;;;;;;0.54;97.13;101139.53;6202490;28;20061;-80
2021/01/27 05:45:30;;;;;;;39.35;19.10;;;;;;;0.53;96.73;101142.13;6202675;28;20050;-78
2021/01/27 05:48:40;;;;;;;37.22;18.80;;;;;;;0.57;96.35;101136.94;6200856;28;20054;-81
2021/01/27 05:51:42;;;;;;;42.45;19.35;;;;;;;0.66;95.66;101138.59;6202328;28;20054;-81
2021/01/27 05:54:43;;;;;;;39.75;19.50;;;;;;;0.55;96.05;101133.50;6205567;28;20672;-81
2021/01/27 05:57:57;;;;;;;35.83;19.33;;;;;;;0.50;96.22;101130.94;6195526;28;20496;-81
2021/01/27 06:01:21;;;;;;;44.15;20.00;;;;;;;0.47;96.44;101130.97;6177262;28;20051;-79
2021/01/27 06:04:26;;;;;;;36.00;17.55;;;;;;;0.49;96.13;101120.59;6176774;28;20046;-80
2021/01/27 06:07:28;;;;;;;38.00;17.42;;;;;;;0.52;95.90;101120.59;6176839;28;20073;-80
2021/01/27 06:10:33;;;;;;;34.53;17.38;;;;;;;0.45;95.83;101106.81;6176993;28;20074;-80
2021/01/27 06:13:34;;;;;;;35.95;18.25;;;;;;;0.50;95.46;101107.69;6177329;28;20051;-79
2021/01/27 06:16:41;;;;;;;35.42;16.45;;;;;;;0.57;95.06;101108.47;6176792;28;20101;-80
2021/01/27 06:19:42;;;;;;;29.42;15.90;;;;;;;0.49;94.79;101100.75;6176138;28;20515;-78
2021/01/27 06:23:19;;;;;;;35.90;16.60;;;;;;;0.52;94.19;101097.31;6177187;28;20046;-79
2021/01/27 06:27:02;;;;;;;31.77;15.52;;;;;;;0.57;94.21;101100.72;6186308;28;20057;-78
2021/01/27 06:30:20;;;;;;;40.58;17.25;;;;;;;0.46;94.65;101084.44;6200481;28;20046;-79
2021/01/27 06:34:00;;;;;;;31.58;15.38;;;;;;;0.38;95.28;101086.22;6200743;28;20050;-78
2021/01/27 06:37:33;;;;;;;30.25;14.98;;;;;;;0.50;93.30;101083.56;6176074;28;20357;-79
2021/01/27 06:40:42;;;;;;;25.60;14.18;;;;;;;0.36;93.76;101081.03;6176327;28;20051;-78
2021/01/27 06:44:02;;;;;;;32.03;14.07;;;;;;;0.46;93.37;101074.97;6176812;28;20062;-79
2021/01/27 06:47:13;;;;;;;30.02;13.52;;;;;;;0.43;93.65;101077.53;6175695;28;20424;-79
2021/01/27 06:50:35;;;;;;;28.08;14.27;;;;;;;0.42;93.52;101075.84;6175858;28;20054;-79
2021/01/27 06:53:53;;;;;;;26.45;12.77;;;;;;;0.35;93.25;101063.81;6176191;28;20054;-80
2021/01/27 06:57:09;;;;;;;24.10;13.27;;;;;;;0.40;93.47;101058.59;6210183;28;20050;-77
2021/01/27 07:00:40;;;;;;;31.95;14.50;;;;;;;0.36;92.73;101056.91;6198660;28;20057;-78
2021/01/27 07:04:12;;;;;;;32.97;14.82;;;;;;;0.39;93.28;101051.72;6199235;28;20061;-79
2021/01/27 07:07:47;;;;;;;31.00;14.20;;;;;;;0.36;93.49;101057.75;6199968;28;20408;-79
2021/01/27 07:11:02;;;;;;;26.83;13.95;;;;;;;0.28;93.25;101049.22;6246865;23;20059;-76
2021/01/27 07:14:21;;;;;;;27.38;12.82;;;;;;;0.34;92.68;101048.31;6265104;28;20053;-77
2021/01/27 07:17:47;;;;;;;26.77;13.25;;;;;;;0.40;91.29;101037.94;6268558;28;20106;-76
2021/01/27 07:20:54;;;;;;;22.75;11.82;;;;;;;0.40;92.37;101028.44;6226530;28;20054;-77
2021/01/27 07:24:01;;;;;;;21.58;11.65;;;;;;;0.44;91.73;101021.53;6245223;28;20045;-77
2021/01/27 07:27:09;;;;;;;25.60;11.48;;;;;;;0.36;91.85;101015.53;6231298;28;20061;-75
2021/01/27 07:30:15;;;;;;;26.42;11.95;;;;;;;0.59;91.45;101012.78;6222328;28;20061;-74
2021/01/27 07:33:21;;;;;;;22.85;11.65;;;;;;;0.62;90.62;101007.59;6222664;28;20541;-73
2021/01/27 07:36:39;;;;;;;22.10;11.55;;;;;;;0.63;90.11;100994.66;6222189;28;20096;-73
2021/01/27 07:39:50;;;;;;;22.58;11.75;;;;;;;0.58;90.27;101009.34;6221907;28;20054;-74
2021/01/27 07:42:56;;;;;;;32.10;10.85;;;;;;;0.60;91.46;101006.78;6222684;28;20060;-74
2021/01/27 07:46:00;;;;;;;25.58;11.13;;;;;;;0.65;91.08;101005.84;6221990;28;20442;-74
2021/01/27 07:49:04;;;;;;;25.00;11.63;;;;;;;0.59;91.49;101011.09;6222008;28;20053;-74
2021/01/27 07:52:16;;;;;;;21.42;11.45;;;;;;;0.63;89.71;101011.91;6222063;28;20057;-73
2021/01/27 07:55:22;;;;;;;21.40;11.23;;;;;;;0.69;90.37;101019.63;6241113;28;20041;-74
2021/01/27 07:58:29;;;;;;;20.73;10.52;;;;;;;0.74;90.13;101017.84;6221801;28;20050;-73
2021/01/27 08:01:37;;;;;;;23.77;11.23;;;;;;;0.63;89.83;101014.47;6221888;28;20050;-73
2021/01/27 08:04:41;;;;;;;21.90;11.33;;;;;;;0.63;90.10;101017.91;6222089;28;20080;-73
2021/01/27 08:07:49;;;;;;;20.88;10.25;;;;;;;0.74;89.20;101016.13;6221613;28;20422;-74
2021/01/27 08:10:52;;;;;;;19.60;9.52;;;;;;;0.67;88.98;101021.34;6221510;28;20506;-74
2021/01/27 08:13:53;;;;;;;20.02;10.07;;;;;;;0.74;89.45;101010.94;6221779;28;20057;-75
2021/01/27 08:16:54;;;;;;;22.13;8.60;;;;;;;0.76;89.02;101013.50;6221716;28;20064;-74
2021/01/27 08:20:17;;;;;;;14.88;7.72;;;;;;;0.79;88.37;101013.50;6239167;28;20156;-74
2021/01/27 08:23:47;;;;;;;13.73;7.70;;;;;;;0.77;87.77;101015.22;6246354;28;20056;-75
2021/01/27 08:26:50;;;;;;;14.45;7.78;;;;;;;0.76;89.11;101019.53;6232170;28;20056;-74
2021/01/27 08:30:23;;;;;;;15.63;8.25;;;;;;;0.74;89.82;101023.03;6221115;28;20054;-74
2021/01/27 08:33:42;;;;;;;18.88;8.75;;;;;;;0.72;89.85;101012.66;6221744;28;20054;-75
2021/01/27 08:37:18;;;;;;;14.50;8.03;;;;;;;0.79;89.17;101008.31;6221357;28;20054;-75
2021/01/27 08:40:32;;;;;;;20.55;8.18;;;;;;;0.79;88.39;101004.88;6220950;28;20300;-74
2021/01/27 08:43:38;;;;;;;15.88;7.88;;;;;;;0.96;88.26;101003.00;6221738;28;20096;-74
2021/01/27 08:46:44;;;;;;;14.73;8.05;;;;;;;0.92;87.66;101004.75;6221209;28;20050;-76
2021/01/27 08:49:49;;;;;;;11.68;7.03;;;;;;;0.96;87.74;100998.69;6221178;28;20049;-74
2021/01/27 08:52:50;;;;;;;12.77;7.72;;;;;;;1.06;86.49;100989.09;6221470;28;20053;-78
2021/01/27 08:55:57;;;;;;;12.63;7.95;;;;;;;1.09;87.96;100983.88;6240543;28;20054;-77
2021/01/27 08:59:28;;;;;;;10.07;6.20;;;;;;;1.27;86.58;100970.75;6218700;28;20053;-77
2021/01/27 09:02:45;;;;;;;9.65;6.10;;;;;;;1.38;87.24;100969.75;6226249;28;20671;-77
2021/01/27 09:05:46;;;;;;;9.68;6.18;;;;;;;1.32;86.73;100974.97;6244351;28;20513;-77
2021/01/27 09:08:48;;;;;;;15.73;7.15;;;;;;;1.38;86.79;100973.19;6231022;28;20388;-74
2021/01/27 09:11:56;;;;;;;9.50;6.05;;;;;;;1.44;85.32;100967.06;6236580;28;20050;-75
2021/01/27 09:14:56;;;;;;;10.60;5.72;;;;;;;1.26;86.95;100965.56;6221531;28;20057;-74
2021/01/27 09:17:59;;;;;;;9.80;4.93;;;;;;;1.45;84.75;100961.91;6242940;28;20414;-75
2021/01/27 09:21:11;;;;;;;14.13;6.47;;;;;;;1.60;83.49;100963.44;6245540;28;20049;-76
2021/01/27 09:24:23;;;;;;;9.10;4.18;;;;;;;1.63;84.40;100950.41;6248205;28;20053;-76
2021/01/27 09:27:28;;;;;;;8.02;4.60;;;;;;;1.59;84.53;100951.34;6225870;28;20054;-75
2021/01/27 09:30:29;;;;;;;10.13;4.00;;;;;;;1.58;84.17;100949.63;6224908;28;20058;-75
2021/01/27 09:33:32;;;;;;;8.63;4.53;;;;;;;1.67;83.84;100952.09;6225449;28;20054;-74
2021/01/27 09:36:33;;;;;;;12.23;5.03;;;;;;;1.78;84.31;100954.56;6224668;28;20096;-75
2021/01/27 09:39:36;;;;;;;9.25;5.20;;;;;;;1.70;84.43;100949.47;6224945;28;20392;-74
2021/01/27 09:42:37;;;;;;;7.68;3.85;;;;;;;1.85;84.60;100955.31;6243899;28;20695;-75
2021/01/27 09:45:41;;;;;;;8.88;4.68;;;;;;;1.90;82.76;100956.94;6249826;28;20053;-77
2021/01/27 09:48:42;;;;;;;8.25;4.88;;;;;;;2.02;82.05;100951.59;6248657;28;20053;-77
2021/01/27 09:51:52;;;;;;;9.57;4.20;;;;;;;1.99;82.90;100949.03;6249486;28;20057;-76
2021/01/27 09:54:57;;;;;;;10.38;4.00;;;;;;;2.05;83.10;100947.25;6249304;28;20067;-76
2021/01/27 09:58:04;;;;;;;9.52;4.35;;;;;;;2.20;81.39;100947.00;6248672;28;20045;-76
2021/01/27 10:01:07;;;;;;;8.55;4.57;;;;;;;2.07;82.15;100958.44;6247707;28;20048;-76
2021/01/27 10:04:10;;;;;;;9.50;5.25;;;;;;;2.34;81.76;100950.25;6248716;28;20065;-74
2021/01/27 10:07:18;;;;;;;9.13;4.90;;;;;;;2.14;81.59;100965.28;6248879;28;20138;-75
2021/01/27 10:10:24;;;;;;;7.27;4.70;;;;;;;2.27;80.89;100953.78;6248397;28;20053;-75
2021/01/27 10:13:31;;;;;;;6.63;4.20;;;;;;;2.18;82.26;100956.53;6248880;28;20045;-75
2021/01/27 10:16:33;;;;;;;8.38;4.60;;;;;;;2.27;81.49;100946.91;6248273;28;20532;-77
2021/01/27 10:19:37;;;;;;;10.25;5.28;;;;;;;2.18;83.54;100940.97;6248398;28;20053;-77
2021/01/27 10:22:40;;;;;;;10.80;6.22;;;;;;;2.25;82.83;100943.47;6248366;28;20045;-77
2021/01/27 10:25:44;;;;;;;8.60;4.60;;;;;;;2.07;84.16;100928.19;6249183;28;20103;-77
2021/01/27 10:28:46;;;;;;;7.93;4.70;;;;;;;2.08;84.58;100939.41;6247258;28;20048;-77
2021/01/27 10:31:49;;;;;;;12.30;5.15;;;;;;;2.11;85.70;100941.97;6248483;28;20076;-76
2021/01/27 10:34:51;;;;;;;12.95;5.18;;;;;;;1.89;87.00;100938.84;6248050;28;20049;-76
2021/01/27 10:37:52;;;;;;;9.68;5.55;;;;;;;1.86;87.66;100944.06;6248167;28;20057;-75
2021/01/27 10:41:06;;;;;;;11.90;6.03;;;;;;;1.66;89.71;100939.16;6247332;28;20049;-75
2021/01/27 10:44:28;;;;;;;8.05;5.22;;;;;;;1.85;90.10;100929.41;6242458;28;20072;-77
2021/01/27 10:47:31;;;;;;;13.13;6.53;;;;;;;1.67;90.32;100927.91;6240419;28;20053;-75
2021/01/27 10:50:33;;;;;;;9.80;5.78;;;;;;;1.71;90.56;100924.41;6223164;28;20065;-76
2021/01/27 10:53:38;;;;;;;13.32;6.13;;;;;;;1.48;91.64;100919.56;6242941;28;20050;-76
2021/01/27 10:56:40;;;;;;;13.95;6.63;;;;;;;1.32;93.16;100926.66;6265890;28;20068;-76
2021/01/27 10:59:41;;;;;;;15.63;6.72;;;;;;;1.28;94.34;100922.41;6269924;28;20513;-75
2021/01/27 11:02:42;;;;;;;11.10;6.68;;;;;;;1.10;95.09;100928.66;6250055;28;20049;-75
2021/01/27 11:05:44;;;;;;;17.17;6.50;;;;;;;1.04;95.45;100928.72;6246814;28;20399;-76
2021/01/27 11:08:45;;;;;;;13.32;6.88;;;;;;;0.90;96.33;100926.28;6246443;28;20495;-75
2021/01/27 11:11:46;;;;;;;11.27;7.03;;;;;;;0.69;97.19;100923.94;6247585;28;20056;-76
2021/01/27 11:14:48;;;;;;;14.32;7.05;;;;;;;0.57;98.33;100922.31;6244073;28;20046;-76
2021/01/27 11:17:49;;;;;;;15.02;8.23;;;;;;;0.52;98.97;100926.66;6222520;28;20046;-77
2021/01/27 11:20:51;;;;;;;16.55;7.85;;;;;;;0.51;99.50;100935.31;6229616;28;20057;-77
2021/01/27 11:23:53;;;;;;;16.52;8.00;;;;;;;0.56;99.70;100932.69;6246212;28;20521;-77
2021/01/27 11:26:53;;;;;;;17.48;8.43;;;;;;;0.64;100.00;100925.72;6264694;28;20452;-79
2021/01/27 11:29:55;;;;;;;15.05;7.72;;;;;;;0.72;100.00;100922.16;6260770;28;20106;-78
2021/01/27 11:32:56;;;;;;;14.48;7.85;;;;;;;0.73;100.00;100921.28;6241588;28;20080;-77
2021/01/27 11:35:57;;;;;;;13.40;7.97;;;;;;;0.73;100.00;100916.13;6246447;28;20057;-78
2021/01/27 11:38:58;;;;;;;15.02;8.02;;;;;;;0.68;100.00;100906.69;6246312;28;20144;-77
2021/01/27 11:41:59;;;;;;;15.60;9.43;;;;;;;0.89;100.00;100905.59;6245399;28;20054;-75
2021/01/27 11:45:01;;;;;;;15.50;8.27;;;;;;;0.90;100.00;100897.81;6237688;28;20548;-77
2021/01/27 11:48:02;;;;;;;13.15;8.40;;;;;;;1.08;100.00;100895.88;6245450;28;20421;-78
2021/01/27 11:51:03;;;;;;;18.90;8.52;;;;;;;1.20;100.00;100890.56;6245803;28;20098;-77
2021/01/27 11:54:04;;;;;;;33.83;10.02;;;;;;;1.30;100.00;100883.53;6243920;28;20045;-78
2021/01/27 11:57:06;;;;;;;18.52;10.00;;;;;;;1.23;100.00;100888.81;6270811;28;20091;-77
2021/01/27 12:00:09;;;;;;;15.52;9.45;;;;;;;1.17;100.00;100890.59;6254655;28;20045;-76
2021/01/27 12:03:10;;;;;;;30.60;10.05;;;;;;;1.16;100.00;100886.31;6241503;28;20049;-76
2021/01/27 12:06:11;;;;;;;16.02;9.57;;;;;;;1.14;100.00;100896.69;6246008;28;20049;-74
2021/01/27 12:09:12;;;;;;;15.68;8.63;;;;;;;1.11;100.00;100891.53;6245774;28;20438;-76
2021/01/27 12:12:13;;;;;;;16.50;8.85;;;;;;;1.13;100.00;100891.50;6246345;28;20081;-77
2021/01/27 12:15:15;;;;;;;18.10;8.65;;;;;;;1.26;100.00;100878.41;6246023;28;20071;-76
2021/01/27 12:18:16;;;;;;;14.15;8.57;;;;;;;1.25;100.00;100876.69;6245988;28;20517;-77
2021/01/27 12:21:17;;;;;;;14.23;8.73;;;;;;;1.30;100.00;100868.88;6245463;28;20049;-77
2021/01/27 12:24:18;;;;;;;12.90;8.30;;;;;;;1.18;100.00;100858.66;6236376;28;20088;-77
2021/01/27 12:27:21;;;;;;;14.57;9.10;;;;;;;1.35;100.00;100854.13;6246541;28;20049;-77
2021/01/27 12:30:23;;;;;;;11.27;7.88;;;;;;;1.35;100.00;100836.00;6245556;28;20128;-75
2021/01/27 12:33:25;;;;;;;13.82;8.88;;;;;;;1.37;100.00;100833.41;6246277;28;20053;-74
2021/01/27 12:36:26;;;;;;;11.68;7.50;;;;;;;1.40;100.00;100836.78;6245501;28;20050;-74
2021/01/27 12:39:27;;;;;;;13.52;8.00;;;;;;;1.41;100.00;100822.09;6245455;28;20045;-73
2021/01/27 12:42:27;;;;;;;11.77;7.40;;;;;;;1.44;100.00;100815.16;6245854;28;20052;-74
2021/01/27 12:45:30;;;;;;;14.00;8.05;;;;;;;1.53;100.00;100815.00;6245988;28;20461;-74
2021/01/27 12:48:31;;;;;;;10.95;7.07;;;;;;;1.48;100.00;100815.97;6245491;28;20049;-74
2021/01/27 12:51:32;;;;;;;17.92;7.95;;;;;;;1.44;100.00;100812.56;6244465;28;20104;-73
2021/01/27 12:54:34;;;;;;;10.70;7.18;;;;;;;1.50;100.00;100801.28;6233456;28;20052;-75
2021/01/27 12:57:34;;;;;;;12.98;7.32;;;;;;;1.42;100.00;100796.22;6252705;28;20061;-75
2021/01/27 13:00:36;;;;;;;12.05;6.75;;;;;;;1.50;100.00;100786.59;6250171;28;20053;-75
2021/01/27 13:03:37;;;;;;;10.88;6.82;;;;;;;1.63;100.00;100766.50;6250454;28;20053;-74
2021/01/27 13:06:38;;;;;;;12.85;6.55;;;;;;;1.57;100.00;100760.59;6250059;28;20060;-75
2021/01/27 13:09:39;;;;;;;9.88;6.00;;;;;;;1.43;100.00;100769.44;6249741;28;20053;-73
2021/01/27 13:12:42;;;;;;;11.13;6.75;;;;;;;1.46;100.00;100769.41;6250327;28;20278;-74
2021/01/27 13:15:44;;;;;;;9.43;6.07;;;;;;;1.40;100.00;100764.28;6247848;28;20523;-74
2021/01/27 13:18:44;;;;;;;11.57;5.82;;;;;;;1.57;100.00;100763.19;6244909;28;20498;-75
2021/01/27 13:21:45;;;;;;;10.50;6.53;;;;;;;1.52;100.00;100761.50;6242036;28;20133;-74
2021/01/27 13:24:46;;;;;;;9.10;5.47;;;;;;;1.69;100.00;100773.34;6231392;28;20077;-74
2021/01/27 13:27:47;;;;;;;10.27;6.18;;;;;;;1.47;100.00;100767.66;6247031;28;20421;-74
2021/01/27 13:30:48;;;;;;;8.30;5.22;;;;;;;1.38;100.00;100763.47;6244854;28;20060;-75
2021/01/27 13:33:49;;;;;;;9.68;5.97;;;;;;;1.40;100.00;100753.09;6225227;28;20396;-73
2021/01/27 13:36:50;;;;;;;8.63;5.50;;;;;;;1.48;100.00;100753.81;6224485;28;20136;-74
2021/01/27 13:39:51;;;;;;;8.93;6.20;;;;;;;1.42;100.00;100751.34;6224780;28;20053;-77
2021/01/27 13:42:53;;;;;;;10.75;6.35;;;;;;;1.46;100.00;100753.00;6239013;28;20057;-76
2021/01/27 13:45:55;;;;;;;8.88;5.78;;;;;;;1.49;100.00;100755.53;6249227;28;20047;-74
2021/01/27 13:48:55;;;;;;;10.75;6.22;;;;;;;1.60;100.00;100748.47;6248887;28;20164;-76
2021/01/27 13:51:56;;;;;;;9.35;6.57;;;;;;;1.47;100.00;100750.38;6249576;28;20128;-76
2021/01/27 13:54:57;;;;;;;11.27;6.70;;;;;;;1.53;100.00;100764.97;6251902;28;20107;-76
2021/01/27 13:57:59;;;;;;;10.55;6.82;;;;;;;1.57;100.00;100768.38;6273458;28;20052;-76
2021/01/27 14:01:00;;;;;;;10.75;6.78;;;;;;;1.46;100.00;100755.59;6247075;28;20050;-76
2021/01/27 14:04:01;;;;;;;10.73;7.28;;;;;;;1.39;100.00;100751.38;6226515;28;20120;-76
2021/01/27 14:07:02;;;;;;;10.98;7.45;;;;;;;1.40;100.00;100748.75;6223857;28;20136;-81
2021/01/27 14:10:05;;;;;;;12.68;7.68;;;;;;;1.37;100.00;100751.41;6223516;28;20080;-75
2021/01/27 14:13:06;;;;;;;9.88;6.50;;;;;;;1.44;100.00;100754.75;6223555;28;20071;-73